Terminal Aerodrome Forecast
Issued by NWS Bismarck, ND

Home | Current Version | Previous Version | Graphics & Text | Print | Product List | Glossary On
Versions: 1 2 3 4 5 6 7 8 9 10 11 12 13 14 15 16 17 18 19
000
FTUS43 KBIS 221729
TAFBIS
TAF
KBIS 221729Z 2218/2318 24012KT P6SM FEW050
     FM222000 27008KT P6SM SCT060
     FM222300 33007KT P6SM SCT060 BKN080
     FM230100 04008KT P6SM SCT060 BKN110
     FM230700 07012G21KT P6SM BKN030
     FM231000 07013G23KT P6SM BKN015=

USA.gov is the U.S. government's official web portal to all federal, state and local government web resources and services.